sensor_id;sensor_type;location;lat;lon;timestamp;P1;durP1;ratioP1;P2;durP2;ratioP2
13999;SDS011;7075;53.574;10.054;2023-07-13T00:00:38;7.70;;;6.27;;
13999;SDS011;7075;53.574;10.054;2023-07-13T00:03:05;5.70;;;4.93;;
13999;SDS011;7075;53.574;10.054;2023-07-13T00:05:30;6.77;;;5.97;;
13999;SDS011;7075;53.574;10.054;2023-07-13T00:07:57;6.07;;;5.47;;
13999;SDS011;7075;53.574;10.054;2023-07-13T00:10:22;5.27;;;3.83;;
13999;SDS011;7075;53.574;10.054;2023-07-13T00:12:49;5.30;;;4.47;;
13999;SDS011;7075;53.574;10.054;2023-07-13T00:15:19;4.63;;;4.23;;
13999;SDS011;7075;53.574;10.054;2023-07-13T00:17:51;5.83;;;4.47;;
13999;SDS011;7075;53.574;10.054;2023-07-13T00:20:21;7.27;;;4.90;;
13999;SDS011;7075;53.574;10.054;2023-07-13T00:22:49;6.03;;;5.13;;
13999;SDS011;7075;53.574;10.054;2023-07-13T00:25:17;6.00;;;5.27;;
13999;SDS011;7075;53.574;10.054;2023-07-13T00:27:43;6.40;;;5.80;;
13999;SDS011;7075;53.574;10.054;2023-07-13T00:30:09;7.10;;;5.73;;
13999;SDS011;7075;53.574;10.054;2023-07-13T00:32:37;6.10;;;5.50;;
13999;SDS011;7075;53.574;10.054;2023-07-13T00:35:03;6.20;;;5.60;;
13999;SDS011;7075;53.574;10.054;2023-07-13T00:37:29;7.83;;;6.93;;
13999;SDS011;7075;53.574;10.054;2023-07-13T00:39:55;7.00;;;6.33;;
13999;SDS011;7075;53.574;10.054;2023-07-13T00:42:20;9.23;;;8.50;;
13999;SDS011;7075;53.574;10.054;2023-07-13T00:45:06;10.10;;;9.20;;
13999;SDS011;7075;53.574;10.054;2023-07-13T00:47:43;8.80;;;8.07;;
13999;SDS011;7075;53.574;10.054;2023-07-13T00:50:10;12.50;;;11.50;;
13999;SDS011;7075;53.574;10.054;2023-07-13T00:52:39;9.37;;;8.67;;
13999;SDS011;7075;53.574;10.054;2023-07-13T00:55:11;10.90;;;10.07;;
13999;SDS011;7075;53.574;10.054;2023-07-13T00:57:39;12.00;;;11.23;;
13999;SDS011;7075;53.574;10.054;2023-07-13T01:00:06;14.20;;;12.97;;
13999;SDS011;7075;53.574;10.054;2023-07-13T01:02:34;10.73;;;9.83;;
13999;SDS011;7075;53.574;10.054;2023-07-13T01:05:08;6.60;;;6.07;;
13999;SDS011;7075;53.574;10.054;2023-07-13T01:07:35;6.17;;;5.67;;
13999;SDS011;7075;53.574;10.054;2023-07-13T01:10:01;6.83;;;5.73;;
13999;SDS011;7075;53.574;10.054;2023-07-13T01:12:27;11.10;;;6.00;;
13999;SDS011;7075;53.574;10.054;2023-07-13T01:14:57;10.67;;;9.80;;
13999;SDS011;7075;53.574;10.054;2023-07-13T01:17:25;13.53;;;12.73;;
13999;SDS011;7075;53.574;10.054;2023-07-13T01:19:52;13.30;;;12.37;;
13999;SDS011;7075;53.574;10.054;2023-07-13T01:22:18;18.57;;;13.30;;
13999;SDS011;7075;53.574;10.054;2023-07-13T01:24:45;13.53;;;12.60;;
13999;SDS011;7075;53.574;10.054;2023-07-13T01:27:13;11.13;;;10.20;;
13999;SDS011;7075;53.574;10.054;2023-07-13T01:29:41;8.07;;;7.47;;
13999;SDS011;7075;53.574;10.054;2023-07-13T01:32:09;7.63;;;7.13;;
13999;SDS011;7075;53.574;10.054;2023-07-13T01:34:36;6.60;;;5.43;;
13999;SDS011;7075;53.574;10.054;2023-07-13T01:37:02;7.97;;;4.70;;
13999;SDS011;7075;53.574;10.054;2023-07-13T01:39:31;10.40;;;4.90;;
13999;SDS011;7075;53.574;10.054;2023-07-13T01:41:56;6.63;;;4.63;;
13999;SDS011;7075;53.574;10.054;2023-07-13T01:46:52;6.10;;;5.70;;
13999;SDS011;7075;53.574;10.054;2023-07-13T01:49:18;10.90;;;8.37;;
13999;SDS011;7075;53.574;10.054;2023-07-13T01:51:44;17.87;;;16.57;;
13999;SDS011;7075;53.574;10.054;2023-07-13T01:54:09;17.77;;;16.57;;
13999;SDS011;7075;53.574;10.054;2023-07-13T01:56:35;18.40;;;17.17;;
13999;SDS011;7075;53.574;10.054;2023-07-13T01:59:00;16.80;;;15.73;;
13999;SDS011;7075;53.574;10.054;2023-07-13T02:01:26;17.23;;;15.87;;
13999;SDS011;7075;53.574;10.054;2023-07-13T02:03:53;16.30;;;15.30;;
13999;SDS011;7075;53.574;10.054;2023-07-13T02:06:18;15.50;;;14.43;;
13999;SDS011;7075;53.574;10.054;2023-07-13T02:08:44;11.83;;;10.83;;
13999;SDS011;7075;53.574;10.054;2023-07-13T02:11:10;7.80;;;7.00;;
13999;SDS011;7075;53.574;10.054;2023-07-13T02:13:35;10.63;;;9.77;;
13999;SDS011;7075;53.574;10.054;2023-07-13T02:16:01;7.63;;;7.10;;
13999;SDS011;7075;53.574;10.054;2023-07-13T02:18:27;10.27;;;9.43;;
13999;SDS011;7075;53.574;10.054;2023-07-13T02:20:53;11.53;;;10.57;;
13999;SDS011;7075;53.574;10.054;2023-07-13T02:23:18;17.57;;;16.37;;
13999;SDS011;7075;53.574;10.054;2023-07-13T02:25:44;17.40;;;16.27;;
13999;SDS011;7075;53.574;10.054;2023-07-13T02:28:10;16.97;;;15.47;;
13999;SDS011;7075;53.574;10.054;2023-07-13T02:30:36;14.60;;;13.57;;
13999;SDS011;7075;53.574;10.054;2023-07-13T02:33:01;18.60;;;17.23;;
13999;SDS011;7075;53.574;10.054;2023-07-13T02:35:27;15.10;;;14.10;;
13999;SDS011;7075;53.574;10.054;2023-07-13T02:37:53;19.70;;;18.50;;
13999;SDS011;7075;53.574;10.054;2023-07-13T02:40:18;16.67;;;15.57;;
13999;SDS011;7075;53.574;10.054;2023-07-13T02:42:44;16.43;;;15.43;;
13999;SDS011;7075;53.574;10.054;2023-07-13T02:45:10;10.83;;;10.00;;
13999;SDS011;7075;53.574;10.054;2023-07-13T02:47:35;16.43;;;15.33;;
13999;SDS011;7075;53.574;10.054;2023-07-13T02:50:02;12.00;;;11.10;;
13999;SDS011;7075;53.574;10.054;2023-07-13T02:52:27;13.23;;;12.10;;
13999;SDS011;7075;53.574;10.054;2023-07-13T02:54:53;16.47;;;15.47;;
13999;SDS011;7075;53.574;10.054;2023-07-13T02:57:18;10.23;;;9.43;;
13999;SDS011;7075;53.574;10.054;2023-07-13T02:59:44;11.67;;;10.57;;
13999;SDS011;7075;53.574;10.054;2023-07-13T03:02:09;9.27;;;7.73;;
13999;SDS011;7075;53.574;10.054;2023-07-13T03:04:41;7.67;;;6.90;;
13999;SDS011;7075;53.574;10.054;2023-07-13T03:07:07;11.47;;;8.33;;
13999;SDS011;7075;53.574;10.054;2023-07-13T03:09:33;9.23;;;8.17;;
13999;SDS011;7075;53.574;10.054;2023-07-13T03:11:59;10.30;;;9.50;;
13999;SDS011;7075;53.574;10.054;2023-07-13T03:14:25;9.00;;;8.00;;
13999;SDS011;7075;53.574;10.054;2023-07-13T03:16:50;9.33;;;8.37;;
13999;SDS011;7075;53.574;10.054;2023-07-13T03:19:16;7.73;;;7.03;;
13999;SDS011;7075;53.574;10.054;2023-07-13T03:21:42;6.87;;;5.67;;
13999;SDS011;7075;53.574;10.054;2023-07-13T03:24:08;10.30;;;4.93;;
13999;SDS011;7075;53.574;10.054;2023-07-13T03:26:34;6.20;;;5.47;;
13999;SDS011;7075;53.574;10.054;2023-07-13T03:29:00;8.70;;;5.17;;
13999;SDS011;7075;53.574;10.054;2023-07-13T03:31:26;6.13;;;4.87;;
13999;SDS011;7075;53.574;10.054;2023-07-13T03:33:55;5.67;;;4.83;;
13999;SDS011;7075;53.574;10.054;2023-07-13T03:36:23;6.80;;;5.77;;
13999;SDS011;7075;53.574;10.054;2023-07-13T03:38:52;9.60;;;6.33;;
13999;SDS011;7075;53.574;10.054;2023-07-13T03:41:19;6.33;;;5.23;;
13999;SDS011;7075;53.574;10.054;2023-07-13T03:43:46;5.63;;;5.17;;
13999;SDS011;7075;53.574;10.054;2023-07-13T03:46:13;5.83;;;5.23;;
13999;SDS011;7075;53.574;10.054;2023-07-13T03:48:39;6.67;;;6.07;;
13999;SDS011;7075;53.574;10.054;2023-07-13T03:51:06;8.23;;;5.43;;
13999;SDS011;7075;53.574;10.054;2023-07-13T03:53:31;7.97;;;5.60;;
13999;SDS011;7075;53.574;10.054;2023-07-13T03:55:57;6.53;;;5.83;;
13999;SDS011;7075;53.574;10.054;2023-07-13T03:58:27;8.60;;;7.87;;
13999;SDS011;7075;53.574;10.054;2023-07-13T04:01:00;9.40;;;8.50;;
13999;SDS011;7075;53.574;10.054;2023-07-13T04:03:27;8.57;;;7.70;;
13999;SDS011;7075;53.574;10.054;2023-07-13T04:05:55;8.03;;;7.27;;
13999;SDS011;7075;53.574;10.054;2023-07-13T04:08:24;7.20;;;6.60;;
13999;SDS011;7075;53.574;10.054;2023-07-13T04:10:55;9.00;;;7.10;;
13999;SDS011;7075;53.574;10.054;2023-07-13T04:13:21;10.63;;;6.03;;
13999;SDS011;7075;53.574;10.054;2023-07-13T04:15:47;8.67;;;5.80;;
13999;SDS011;7075;53.574;10.054;2023-07-13T04:18:13;7.57;;;5.67;;
13999;SDS011;7075;53.574;10.054;2023-07-13T04:20:38;6.37;;;5.07;;
13999;SDS011;7075;53.574;10.054;2023-07-13T04:23:04;8.23;;;6.10;;
13999;SDS011;7075;53.574;10.054;2023-07-13T04:25:29;7.53;;;5.77;;
13999;SDS011;7075;53.574;10.054;2023-07-13T04:27:55;5.70;;;5.27;;
13999;SDS011;7075;53.574;10.054;2023-07-13T04:30:21;6.23;;;5.43;;
13999;SDS011;7075;53.574;10.054;2023-07-13T04:32:47;10.17;;;6.17;;
13999;SDS011;7075;53.574;10.054;2023-07-13T04:35:13;7.90;;;7.20;;
13999;SDS011;7075;53.574;10.054;2023-07-13T04:37:39;12.03;;;7.50;;
13999;SDS011;7075;53.574;10.054;2023-07-13T04:40:05;8.57;;;7.17;;
13999;SDS011;7075;53.574;10.054;2023-07-13T04:42:31;8.27;;;7.67;;
13999;SDS011;7075;53.574;10.054;2023-07-13T04:44:59;8.17;;;7.43;;
13999;SDS011;7075;53.574;10.054;2023-07-13T04:47:25;8.70;;;6.93;;
13999;SDS011;7075;53.574;10.054;2023-07-13T04:49:50;8.80;;;6.80;;
13999;SDS011;7075;53.574;10.054;2023-07-13T04:52:16;6.17;;;5.57;;
13999;SDS011;7075;53.574;10.054;2023-07-13T04:54:42;6.77;;;6.07;;
13999;SDS011;7075;53.574;10.054;2023-07-13T04:57:07;5.20;;;4.73;;
13999;SDS011;7075;53.574;10.054;2023-07-13T04:59:33;6.37;;;5.77;;
13999;SDS011;7075;53.574;10.054;2023-07-13T05:01:59;8.03;;;5.30;;
13999;SDS011;7075;53.574;10.054;2023-07-13T05:04:26;12.57;;;6.30;;
13999;SDS011;7075;53.574;10.054;2023-07-13T05:06:52;8.20;;;6.73;;
13999;SDS011;7075;53.574;10.054;2023-07-13T05:09:17;9.17;;;6.03;;
13999;SDS011;7075;53.574;10.054;2023-07-13T05:11:43;9.73;;;6.60;;
13999;SDS011;7075;53.574;10.054;2023-07-13T05:14:09;10.10;;;6.47;;
13999;SDS011;7075;53.574;10.054;2023-07-13T05:16:35;9.93;;;6.77;;
13999;SDS011;7075;53.574;10.054;2023-07-13T05:19:01;7.57;;;6.83;;
13999;SDS011;7075;53.574;10.054;2023-07-13T05:21:27;9.57;;;8.73;;
13999;SDS011;7075;53.574;10.054;2023-07-13T05:23:53;12.00;;;8.57;;
13999;SDS011;7075;53.574;10.054;2023-07-13T05:26:19;14.03;;;7.20;;
13999;SDS011;7075;53.574;10.054;2023-07-13T05:28:45;10.50;;;9.03;;
13999;SDS011;7075;53.574;10.054;2023-07-13T05:31:11;8.70;;;7.93;;
13999;SDS011;7075;53.574;10.054;2023-07-13T05:33:45;45.37;;;42.13;;
13999;SDS011;7075;53.574;10.054;2023-07-13T05:36:11;12.87;;;8.93;;
13999;SDS011;7075;53.574;10.054;2023-07-13T05:38:37;14.60;;;8.80;;
13999;SDS011;7075;53.574;10.054;2023-07-13T05:41:03;9.73;;;6.97;;
13999;SDS011;7075;53.574;10.054;2023-07-13T05:43:28;12.53;;;8.20;;
13999;SDS011;7075;53.574;10.054;2023-07-13T05:45:54;14.93;;;8.07;;
13999;SDS011;7075;53.574;10.054;2023-07-13T05:48:33;18.70;;;9.13;;
13999;SDS011;7075;53.574;10.054;2023-07-13T05:50:59;19.23;;;9.73;;
13999;SDS011;7075;53.574;10.054;2023-07-13T05:53:25;19.40;;;10.70;;
13999;SDS011;7075;53.574;10.054;2023-07-13T05:55:51;11.27;;;8.33;;
13999;SDS011;7075;53.574;10.054;2023-07-13T05:58:19;12.10;;;8.67;;
13999;SDS011;7075;53.574;10.054;2023-07-13T06:00:45;13.63;;;7.90;;
13999;SDS011;7075;53.574;10.054;2023-07-13T06:03:12;12.30;;;8.20;;
13999;SDS011;7075;53.574;10.054;2023-07-13T06:05:37;15.07;;;8.17;;
13999;SDS011;7075;53.574;10.054;2023-07-13T06:08:04;11.40;;;9.33;;
13999;SDS011;7075;53.574;10.054;2023-07-13T06:10:36;10.13;;;7.97;;
13999;SDS011;7075;53.574;10.054;2023-07-13T06:13:02;11.13;;;8.03;;
13999;SDS011;7075;53.574;10.054;2023-07-13T06:15:28;10.30;;;7.67;;
13999;SDS011;7075;53.574;10.054;2023-07-13T06:17:53;15.50;;;7.83;;
13999;SDS011;7075;53.574;10.054;2023-07-13T06:20:19;11.10;;;7.00;;
13999;SDS011;7075;53.574;10.054;2023-07-13T06:22:44;16.77;;;7.20;;
13999;SDS011;7075;53.574;10.054;2023-07-13T06:25:10;11.93;;;7.03;;
13999;SDS011;7075;53.574;10.054;2023-07-13T06:27:36;9.03;;;6.50;;
13999;SDS011;7075;53.574;10.054;2023-07-13T06:30:01;13.73;;;6.73;;
13999;SDS011;7075;53.574;10.054;2023-07-13T06:32:28;12.27;;;7.00;;
13999;SDS011;7075;53.574;10.054;2023-07-13T06:34:53;9.77;;;6.10;;
13999;SDS011;7075;53.574;10.054;2023-07-13T06:37:19;13.10;;;7.73;;
13999;SDS011;7075;53.574;10.054;2023-07-13T06:39:44;11.27;;;6.73;;
13999;SDS011;7075;53.574;10.054;2023-07-13T06:42:09;12.07;;;10.70;;
13999;SDS011;7075;53.574;10.054;2023-07-13T06:44:35;8.60;;;6.20;;
13999;SDS011;7075;53.574;10.054;2023-07-13T06:47:01;14.00;;;7.20;;
13999;SDS011;7075;53.574;10.054;2023-07-13T06:49:27;8.30;;;6.30;;
13999;SDS011;7075;53.574;10.054;2023-07-13T06:51:52;14.87;;;7.97;;
13999;SDS011;7075;53.574;10.054;2023-07-13T06:54:18;7.53;;;6.10;;
13999;SDS011;7075;53.574;10.054;2023-07-13T06:56:43;14.63;;;6.43;;
13999;SDS011;7075;53.574;10.054;2023-07-13T06:59:09;12.50;;;7.00;;
13999;SDS011;7075;53.574;10.054;2023-07-13T07:01:34;12.63;;;7.30;;
13999;SDS011;7075;53.574;10.054;2023-07-13T07:04:00;10.17;;;6.63;;
13999;SDS011;7075;53.574;10.054;2023-07-13T07:06:25;10.87;;;5.90;;
13999;SDS011;7075;53.574;10.054;2023-07-13T07:08:51;13.03;;;7.07;;
13999;SDS011;7075;53.574;10.054;2023-07-13T07:11:18;10.13;;;7.50;;
13999;SDS011;7075;53.574;10.054;2023-07-13T07:13:47;12.57;;;8.47;;
13999;SDS011;7075;53.574;10.054;2023-07-13T07:16:19;11.73;;;6.73;;
13999;SDS011;7075;53.574;10.054;2023-07-13T07:18:46;10.57;;;6.90;;
13999;SDS011;7075;53.574;10.054;2023-07-13T07:21:14;14.93;;;7.40;;
13999;SDS011;7075;53.574;10.054;2023-07-13T07:23:40;10.07;;;7.10;;
13999;SDS011;7075;53.574;10.054;2023-07-13T07:26:05;12.43;;;6.83;;
13999;SDS011;7075;53.574;10.054;2023-07-13T07:28:33;10.17;;;7.10;;
13999;SDS011;7075;53.574;10.054;2023-07-13T07:31:00;13.30;;;7.07;;
13999;SDS011;7075;53.574;10.054;2023-07-13T07:33:26;7.10;;;6.40;;
13999;SDS011;7075;53.574;10.054;2023-07-13T07:35:51;13.83;;;7.67;;
13999;SDS011;7075;53.574;10.054;2023-07-13T07:38:17;9.40;;;6.10;;
13999;SDS011;7075;53.574;10.054;2023-07-13T07:40:44;13.03;;;6.80;;
13999;SDS011;7075;53.574;10.054;2023-07-13T07:43:11;14.97;;;7.57;;
13999;SDS011;7075;53.574;10.054;2023-07-13T07:45:38;10.77;;;6.83;;
13999;SDS011;7075;53.574;10.054;2023-07-13T07:48:05;10.40;;;7.30;;
13999;SDS011;7075;53.574;10.054;2023-07-13T07:50:32;10.10;;;7.60;;
13999;SDS011;7075;53.574;10.054;2023-07-13T07:52:58;11.90;;;6.37;;
13999;SDS011;7075;53.574;10.054;2023-07-13T07:55:23;12.10;;;7.63;;
13999;SDS011;7075;53.574;10.054;2023-07-13T07:57:54;10.30;;;7.50;;
13999;SDS011;7075;53.574;10.054;2023-07-13T08:00:22;13.17;;;6.53;;
13999;SDS011;7075;53.574;10.054;2023-07-13T08:02:48;16.77;;;6.70;;
13999;SDS011;7075;53.574;10.054;2023-07-13T08:05:13;12.47;;;6.23;;
13999;SDS011;7075;53.574;10.054;2023-07-13T08:07:41;7.80;;;5.40;;
13999;SDS011;7075;53.574;10.054;2023-07-13T08:10:08;11.83;;;5.93;;
13999;SDS011;7075;53.574;10.054;2023-07-13T08:12:37;11.43;;;5.60;;
13999;SDS011;7075;53.574;10.054;2023-07-13T08:15:04;9.80;;;5.10;;
13999;SDS011;7075;53.574;10.054;2023-07-13T08:17:33;13.13;;;5.43;;
13999;SDS011;7075;53.574;10.054;2023-07-13T08:20:05;11.57;;;10.40;;
13999;SDS011;7075;53.574;10.054;2023-07-13T08:22:32;12.07;;;7.13;;
13999;SDS011;7075;53.574;10.054;2023-07-13T08:24:58;9.83;;;7.87;;
13999;SDS011;7075;53.574;10.054;2023-07-13T08:27:25;9.03;;;6.57;;
13999;SDS011;7075;53.574;10.054;2023-07-13T08:29:53;10.87;;;5.73;;
13999;SDS011;7075;53.574;10.054;2023-07-13T08:32:19;10.90;;;9.80;;
13999;SDS011;7075;53.574;10.054;2023-07-13T08:34:46;14.07;;;7.07;;
13999;SDS011;7075;53.574;10.054;2023-07-13T08:37:13;8.63;;;7.40;;
13999;SDS011;7075;53.574;10.054;2023-07-13T08:39:39;12.03;;;8.27;;
13999;SDS011;7075;53.574;10.054;2023-07-13T08:42:06;8.57;;;7.27;;
13999;SDS011;7075;53.574;10.054;2023-07-13T08:44:48;10.57;;;8.67;;
13999;SDS011;7075;53.574;10.054;2023-07-13T08:47:21;14.03;;;10.33;;
13999;SDS011;7075;53.574;10.054;2023-07-13T08:49:48;28.73;;;26.60;;
13999;SDS011;7075;53.574;10.054;2023-07-13T08:52:35;10.63;;;9.50;;
13999;SDS011;7075;53.574;10.054;2023-07-13T08:55:25;10.57;;;9.50;;
13999;SDS011;7075;53.574;10.054;2023-07-13T08:57:59;13.83;;;12.17;;
13999;SDS011;7075;53.574;10.054;2023-07-13T09:00:37;17.50;;;16.10;;
13999;SDS011;7075;53.574;10.054;2023-07-13T09:03:22;11.50;;;10.43;;
13999;SDS011;7075;53.574;10.054;2023-07-13T09:05:54;12.17;;;11.03;;
13999;SDS011;7075;53.574;10.054;2023-07-13T09:11:09;17.73;;;16.00;;
13999;SDS011;7075;53.574;10.054;2023-07-13T09:16:20;10.87;;;9.63;;
13999;SDS011;7075;53.574;10.054;2023-07-13T09:18:47;14.53;;;13.13;;
13999;SDS011;7075;53.574;10.054;2023-07-13T09:21:17;9.90;;;8.93;;
13999;SDS011;7075;53.574;10.054;2023-07-13T09:23:59;10.33;;;9.60;;
13999;SDS011;7075;53.574;10.054;2023-07-13T09:26:41;11.17;;;10.10;;
13999;SDS011;7075;53.574;10.054;2023-07-13T09:29:24;9.43;;;8.67;;
13999;SDS011;7075;53.574;10.054;2023-07-13T09:31:55;11.27;;;10.37;;
13999;SDS011;7075;53.574;10.054;2023-07-13T09:34:24;14.00;;;9.83;;
13999;SDS011;7075;53.574;10.054;2023-07-13T09:36:50;10.83;;;10.07;;
13999;SDS011;7075;53.574;10.054;2023-07-13T09:42:05;11.07;;;10.10;;
13999;SDS011;7075;53.574;10.054;2023-07-13T09:44:51;13.80;;;11.37;;
13999;SDS011;7075;53.574;10.054;2023-07-13T09:47:17;14.80;;;13.80;;
13999;SDS011;7075;53.574;10.054;2023-07-13T09:49:59;17.13;;;15.93;;
13999;SDS011;7075;53.574;10.054;2023-07-13T09:52:27;17.47;;;16.27;;
13999;SDS011;7075;53.574;10.054;2023-07-13T09:55:03;21.53;;;20.20;;
13999;SDS011;7075;53.574;10.054;2023-07-13T09:57:31;18.63;;;17.03;;
13999;SDS011;7075;53.574;10.054;2023-07-13T09:59:57;20.63;;;19.13;;
13999;SDS011;7075;53.574;10.054;2023-07-13T10:05:05;19.10;;;18.00;;
13999;SDS011;7075;53.574;10.054;2023-07-13T10:07:39;30.97;;;28.67;;
13999;SDS011;7075;53.574;10.054;2023-07-13T10:10:17;19.70;;;18.50;;
13999;SDS011;7075;53.574;10.054;2023-07-13T10:12:46;16.53;;;15.53;;
13999;SDS011;7075;53.574;10.054;2023-07-13T10:15:16;16.90;;;15.23;;
13999;SDS011;7075;53.574;10.054;2023-07-13T10:17:53;14.93;;;13.80;;
13999;SDS011;7075;53.574;10.054;2023-07-13T10:20:20;14.67;;;13.60;;
13999;SDS011;7075;53.574;10.054;2023-07-13T10:23:00;15.07;;;14.03;;
13999;SDS011;7075;53.574;10.054;2023-07-13T10:25:33;15.80;;;14.77;;
13999;SDS011;7075;53.574;10.054;2023-07-13T10:28:20;14.30;;;12.83;;
13999;SDS011;7075;53.574;10.054;2023-07-13T10:31:01;13.37;;;12.47;;
13999;SDS011;7075;53.574;10.054;2023-07-13T10:33:29;13.27;;;12.27;;
13999;SDS011;7075;53.574;10.054;2023-07-13T10:36:05;11.50;;;10.63;;
13999;SDS011;7075;53.574;10.054;2023-07-13T10:38:37;10.23;;;8.87;;
13999;SDS011;7075;53.574;10.054;2023-07-13T10:41:06;9.17;;;8.00;;
13999;SDS011;7075;53.574;10.054;2023-07-13T10:43:36;8.73;;;7.93;;
13999;SDS011;7075;53.574;10.054;2023-07-13T10:46:08;9.03;;;8.17;;
13999;SDS011;7075;53.574;10.054;2023-07-13T10:48:37;11.30;;;10.20;;
13999;SDS011;7075;53.574;10.054;2023-07-13T10:51:06;14.77;;;13.83;;
13999;SDS011;7075;53.574;10.054;2023-07-13T10:53:35;9.07;;;8.30;;
13999;SDS011;7075;53.574;10.054;2023-07-13T10:56:08;9.43;;;6.33;;
13999;SDS011;7075;53.574;10.054;2023-07-13T10:58:47;11.73;;;10.87;;
13999;SDS011;7075;53.574;10.054;2023-07-13T11:04:40;11.47;;;10.67;;
13999;SDS011;7075;53.574;10.054;2023-07-13T11:07:24;12.67;;;9.50;;
13999;SDS011;7075;53.574;10.054;2023-07-13T11:09:56;25.83;;;24.10;;
13999;SDS011;7075;53.574;10.054;2023-07-13T11:22:53;16.90;;;14.63;;
13999;SDS011;7075;53.574;10.054;2023-07-13T11:25:32;22.47;;;20.83;;
13999;SDS011;7075;53.574;10.054;2023-07-13T11:30:48;20.43;;;18.93;;
13999;SDS011;7075;53.574;10.054;2023-07-13T11:33:24;39.23;;;37.03;;
13999;SDS011;7075;53.574;10.054;2023-07-13T11:38:47;20.37;;;19.13;;
13999;SDS011;7075;53.574;10.054;2023-07-13T11:41:22;4.87;;;2.77;;
13999;SDS011;7075;53.574;10.054;2023-07-13T11:46:46;25.53;;;24.00;;
13999;SDS011;7075;53.574;10.054;2023-07-13T11:49:23;35.20;;;33.23;;
13999;SDS011;7075;53.574;10.054;2023-07-13T11:51:51;9.80;;;9.20;;
13999;SDS011;7075;53.574;10.054;2023-07-13T11:54:22;3.80;;;3.50;;
13999;SDS011;7075;53.574;10.054;2023-07-13T11:56:59;12.03;;;10.93;;
13999;SDS011;7075;53.574;10.054;2023-07-13T11:59:31;23.73;;;22.40;;
13999;SDS011;7075;53.574;10.054;2023-07-13T12:01:58;25.47;;;23.60;;
13999;SDS011;7075;53.574;10.054;2023-07-13T12:04:26;30.87;;;28.90;;
13999;SDS011;7075;53.574;10.054;2023-07-13T12:07:14;34.43;;;32.47;;
13999;SDS011;7075;53.574;10.054;2023-07-13T12:09:42;38.80;;;36.67;;
13999;SDS011;7075;53.574;10.054;2023-07-13T12:12:16;22.03;;;20.47;;
13999;SDS011;7075;53.574;10.054;2023-07-13T12:14:44;27.30;;;25.70;;
13999;SDS011;7075;53.574;10.054;2023-07-13T12:17:19;36.50;;;34.47;;
13999;SDS011;7075;53.574;10.054;2023-07-13T12:19:49;45.43;;;42.90;;
13999;SDS011;7075;53.574;10.054;2023-07-13T12:22:16;50.40;;;47.50;;
13999;SDS011;7075;53.574;10.054;2023-07-13T12:24:44;16.73;;;15.37;;
13999;SDS011;7075;53.574;10.054;2023-07-13T12:27:21;11.13;;;10.20;;
13999;SDS011;7075;53.574;10.054;2023-07-13T12:29:51;39.00;;;36.70;;
13999;SDS011;7075;53.574;10.054;2023-07-13T12:32:30;37.30;;;35.23;;
13999;SDS011;7075;53.574;10.054;2023-07-13T12:35:16;27.77;;;25.87;;
13999;SDS011;7075;53.574;10.054;2023-07-13T12:37:45;14.43;;;13.23;;
13999;SDS011;7075;53.574;10.054;2023-07-13T12:40:18;9.73;;;8.37;;
13999;SDS011;7075;53.574;10.054;2023-07-13T12:42:47;21.73;;;20.37;;
13999;SDS011;7075;53.574;10.054;2023-07-13T12:45:25;19.77;;;18.37;;
13999;SDS011;7075;53.574;10.054;2023-07-13T12:48:04;14.43;;;13.27;;
13999;SDS011;7075;53.574;10.054;2023-07-13T12:50:39;11.27;;;10.27;;
13999;SDS011;7075;53.574;10.054;2023-07-13T12:53:11;47.63;;;44.97;;
13999;SDS011;7075;53.574;10.054;2023-07-13T12:55:40;43.07;;;40.60;;
13999;SDS011;7075;53.574;10.054;2023-07-13T12:58:20;34.57;;;32.53;;
13999;SDS011;7075;53.574;10.054;2023-07-13T13:01:09;58.33;;;55.30;;
13999;SDS011;7075;53.574;10.054;2023-07-13T13:03:48;58.50;;;55.30;;
13999;SDS011;7075;53.574;10.054;2023-07-13T13:06:24;60.47;;;57.13;;
13999;SDS011;7075;53.574;10.054;2023-07-13T13:08:56;68.03;;;64.53;;
13999;SDS011;7075;53.574;10.054;2023-07-13T13:11:27;59.93;;;56.73;;
13999;SDS011;7075;53.574;10.054;2023-07-13T13:13:54;52.03;;;49.43;;
13999;SDS011;7075;53.574;10.054;2023-07-13T13:19:13;57.13;;;54.13;;
13999;SDS011;7075;53.574;10.054;2023-07-13T13:21:46;48.87;;;46.00;;
13999;SDS011;7075;53.574;10.054;2023-07-13T13:24:22;44.77;;;42.23;;
13999;SDS011;7075;53.574;10.054;2023-07-13T13:26:50;45.70;;;43.20;;
13999;SDS011;7075;53.574;10.054;2023-07-13T13:29:19;48.20;;;45.57;;
13999;SDS011;7075;53.574;10.054;2023-07-13T13:31:47;44.87;;;42.53;;
13999;SDS011;7075;53.574;10.054;2023-07-13T13:34:15;44.37;;;41.97;;
13999;SDS011;7075;53.574;10.054;2023-07-13T13:36:42;36.53;;;34.47;;
13999;SDS011;7075;53.574;10.054;2023-07-13T13:39:24;32.87;;;30.80;;
13999;SDS011;7075;53.574;10.054;2023-07-13T13:41:54;20.43;;;19.00;;
13999;SDS011;7075;53.574;10.054;2023-07-13T13:44:20;22.47;;;20.93;;
13999;SDS011;7075;53.574;10.054;2023-07-13T13:46:48;16.10;;;15.10;;
13999;SDS011;7075;53.574;10.054;2023-07-13T13:49:17;13.23;;;12.23;;
13999;SDS011;7075;53.574;10.054;2023-07-13T13:51:51;9.50;;;9.00;;
13999;SDS011;7075;53.574;10.054;2023-07-13T13:54:19;9.07;;;8.37;;
13999;SDS011;7075;53.574;10.054;2023-07-13T13:56:47;9.50;;;8.73;;
13999;SDS011;7075;53.574;10.054;2023-07-13T13:59:13;8.60;;;8.03;;
13999;SDS011;7075;53.574;10.054;2023-07-13T14:01:39;8.33;;;7.83;;
13999;SDS011;7075;53.574;10.054;2023-07-13T14:04:08;9.80;;;9.20;;
13999;SDS011;7075;53.574;10.054;2023-07-13T14:06:47;4.53;;;4.13;;
13999;SDS011;7075;53.574;10.054;2023-07-13T14:09:14;6.40;;;6.00;;
13999;SDS011;7075;53.574;10.054;2023-07-13T14:11:43;6.20;;;5.60;;
13999;SDS011;7075;53.574;10.054;2023-07-13T14:14:16;4.60;;;4.30;;
13999;SDS011;7075;53.574;10.054;2023-07-13T14:16:46;6.43;;;5.83;;
13999;SDS011;7075;53.574;10.054;2023-07-13T14:19:18;6.10;;;5.37;;
13999;SDS011;7075;53.574;10.054;2023-07-13T14:21:44;5.60;;;5.20;;
13999;SDS011;7075;53.574;10.054;2023-07-13T14:24:09;6.17;;;5.63;;
13999;SDS011;7075;53.574;10.054;2023-07-13T14:26:36;6.33;;;4.20;;
13999;SDS011;7075;53.574;10.054;2023-07-13T14:29:04;4.47;;;3.80;;
13999;SDS011;7075;53.574;10.054;2023-07-13T14:31:35;5.63;;;4.13;;
13999;SDS011;7075;53.574;10.054;2023-07-13T14:34:01;4.70;;;4.30;;
13999;SDS011;7075;53.574;10.054;2023-07-13T14:36:35;6.07;;;4.70;;
13999;SDS011;7075;53.574;10.054;2023-07-13T14:39:20;4.77;;;4.07;;
13999;SDS011;7075;53.574;10.054;2023-07-13T14:41:49;6.90;;;4.97;;
13999;SDS011;7075;53.574;10.054;2023-07-13T14:44:17;5.57;;;4.47;;
13999;SDS011;7075;53.574;10.054;2023-07-13T14:46:45;4.83;;;4.43;;
13999;SDS011;7075;53.574;10.054;2023-07-13T14:49:15;4.47;;;4.17;;
13999;SDS011;7075;53.574;10.054;2023-07-13T14:51:42;7.53;;;6.83;;
13999;SDS011;7075;53.574;10.054;2023-07-13T14:54:08;7.07;;;6.30;;
13999;SDS011;7075;53.574;10.054;2023-07-13T14:56:34;6.90;;;6.07;;
13999;SDS011;7075;53.574;10.054;2023-07-13T14:59:00;6.20;;;5.80;;
13999;SDS011;7075;53.574;10.054;2023-07-13T15:03:59;5.50;;;5.00;;
13999;SDS011;7075;53.574;10.054;2023-07-13T15:06:25;3.90;;;3.60;;
13999;SDS011;7075;53.574;10.054;2023-07-13T15:08:53;3.90;;;3.60;;
13999;SDS011;7075;53.574;10.054;2023-07-13T15:11:18;5.17;;;4.70;;
13999;SDS011;7075;53.574;10.054;2023-07-13T15:13:44;4.67;;;4.27;;
13999;SDS011;7075;53.574;10.054;2023-07-13T15:16:22;5.37;;;4.87;;
13999;SDS011;7075;53.574;10.054;2023-07-13T15:18:51;6.80;;;5.03;;
13999;SDS011;7075;53.574;10.054;2023-07-13T15:21:22;5.27;;;4.97;;
13999;SDS011;7075;53.574;10.054;2023-07-13T15:23:50;11.20;;;10.50;;
13999;SDS011;7075;53.574;10.054;2023-07-13T15:26:17;6.07;;;5.63;;